Placerville, CA (95667)

10:11 PM PDT en Octubre 22, 2014 (GMT -0700)
Ladera Lane | Change Station
CLOSE
Current Station
Estación meteorológica personal
Location: Placerville, CA
Altura: 2090 ft
Estaciones meteorológicas cercanas

Alt 2090 ft 38.74 °N, 120.78 °W | Updated 20 seconds ago

Clear
Despejado
54.0 ° F
Sensación térmica 54.0 ° F
N
0.0
Viento Variable Viento desde SSO
Gusts 0.0 mph

Hoy
Alta -- | Baja -- ° F
--% Posibilidad de precipitaciones
Ayer
Alta -- | Baja -- ° F
Precip. -- pul
7:19 AM 6:14 PM
Creciente menguante, 1% visible
Presión 30.10 pul
Visibilidad 10.0 Millas
Nubes Despejado
Punto de rocío 41 ° F
Humedad 61%
Precipitaciones 0.00 pul
Espesor de la nieve No disponible.
UV 0 de una escala de 12
Polen 3.80 de una escala de 12
Ozono Buena
Flu Activity Sporadic
METAR KPVF 230455Z AUTO 00000KT 10SM CLR 14/03 A3010 RMK AO1

More Conditions Fewer Conditions

Presión 30.10 pul
Visibilidad 10.0 Millas
Nubes Despejado
Punto de rocío 41 ° F
Humedad 61%
Precipitaciones 0.00 pul
Espesor de la nieve No disponible.
UV 0 de una escala de 12
Polen 3.80 de una escala de 12
Ozono Buena
Flu Activity Sporadic
METAR KPVF 230455Z AUTO 00000KT 10SM CLR 14/03 A3010 RMK AO1

More Conditions Fewer Conditions

10-Day Weather Forecast

Almanac

Astronomía

Oct. 22, 2014 Salida Puesta
Hora real 7:19 AM PDT 6:14 PM PDT
Crepúsculo civil 6:52 AM PDT 6:42 PM PDT
Crepúsculo náutico 6:21 AM PDT 7:13 PM PDT
Crepúsculo astronómico 5:50 AM PDT 7:43 PM PDT
Luna 6:06 AM PDT (10/22) 5:44 PM PDT (10/22)
Horas de luz 11h 49m
Horas de luz
10h 55m
Tomorrow will be 2m 21s shorter.
Creciente menguante, 1% of the Moon is Illuminated
Oct 23
Creciente menguante
Oct 23
Nueva
Oct 30
Cuarto creciente
Nov 6
Luna llena
Nov 14
Cuarto menguante

Extremos de ayer

Máximos del estado Bajos del estado

Community

WunderPhotos

Upload Photos

1,764,170 ¡fotos cargadas!

Nearby

Calidad del aire

  Calidad del aire Índice AQ Contaminante
Ayer Buena
OZONE
Real Buena
OZONE
Miércoles Buena
OZONE
Jueves Buena
OZONE
Viernes Buena
OZONE
Sábado Buena
OZONE
Domingo Buena
OZONE
Lunes Buena
OZONE

Grosos de nieve

Estación Profundido Altura
Echo Peak 1 in 7800 ft
Rubicon #2 0 in 7500 ft
Ward Creek #3 0 in 6750 ft
Fallen Leaf 0 in 6300 ft
Tahoe City Cross 0 in 6750 ft

Actividad de terremotos

Ciudad Distance Mag. Tiempo y dato
Mammoth Lakes, California 139 Millas 3.0 11:10 PM PDT
2014-10-20
Magnitud mínima muestra es 2,5.

Temperaturas de aguas costeras

Lugar Temperatura
Sin partes meteorológicos de las estaciones

Estaciones meteorológicas cercanas